Time;durP1;ratioP1;P1;durP2;ratioP2;P2;SDS_P1;SDS_P2;PMS_P1;PMS_P2;Temp;Humidity;BMP_temperature;BMP_pressure;BME280_temperature;BME280_humidity;BME280_pressure;Samples;Min_cycle;Max_cycle;Signal;HPM_P1;HPM_P2
2022/10/19 00:01:12;;;;;;;50.10;22.73;;;;;;;;;;5052323;28;20060;-85
2022/10/19 00:03:39;;;;;;;35.22;21.30;;;;;;;;;;5050023;28;20087;-85
2022/10/19 00:06:14;;;;;;;33.42;20.40;;;;;;;;;;5051815;28;20033;-84
2022/10/19 00:08:42;;;;;;;31.17;19.63;;;;;;;;;;5042983;28;20513;-84
2022/10/19 00:11:10;;;;;;;23.80;16.90;;;;;;;;;;5052954;28;20488;-84
2022/10/19 00:13:37;;;;;;;24.33;16.73;;;;;;;;;;5049643;28;20041;-84
2022/10/19 00:16:09;;;;;;;22.75;15.65;;;;;;;;;;5047691;28;20392;-84
2022/10/19 00:18:38;;;;;;;23.60;14.73;;;;;;;;;;5027306;28;20866;-84
2022/10/19 00:21:06;;;;;;;17.00;13.20;;;;;;;;;;5046339;28;20325;-84
2022/10/19 00:23:33;;;;;;;16.60;13.32;;;;;;;;;;5047923;28;20148;-84
2022/10/19 00:26:01;;;;;;;16.83;14.25;;;;;;;;;;5030308;28;20139;-84
2022/10/19 00:28:29;;;;;;;21.95;13.55;;;;;;;;;;5029294;28;20045;-84
2022/10/19 00:30:56;;;;;;;15.75;13.00;;;;;;;;;;5047734;28;20040;-84
2022/10/19 00:33:23;;;;;;;13.40;10.57;;;;;;;;;;5046826;28;20048;-84
2022/10/19 00:35:51;;;;;;;20.98;12.55;;;;;;;;;;5048610;28;20098;-85
2022/10/19 00:38:19;;;;;;;16.65;12.95;;;;;;;;;;5045441;28;20048;-85
2022/10/19 00:40:47;;;;;;;13.23;11.82;;;;;;;;;;5045220;28;20108;-84
2022/10/19 00:43:15;;;;;;;15.43;11.82;;;;;;;;;;5045935;28;20159;-84
2022/10/19 00:45:43;;;;;;;16.50;12.15;;;;;;;;;;5044701;28;20080;-85
2022/10/19 00:48:12;;;;;;;18.85;12.30;;;;;;;;;;5044697;28;20496;-85
2022/10/19 00:50:39;;;;;;;18.40;11.45;;;;;;;;;;5045130;28;20043;-84
2022/10/19 00:53:10;;;;;;;14.40;11.93;;;;;;;;;;5047743;28;20094;-85
2022/10/19 00:55:38;;;;;;;16.13;11.90;;;;;;;;;;5043378;28;20055;-84
2022/10/19 00:58:05;;;;;;;16.70;11.13;;;;;;;;;;5046870;28;20454;-85
2022/10/19 01:00:33;;;;;;;13.98;10.70;;;;;;;;;;5045198;28;20049;-84
2022/10/19 01:03:00;;;;;;;18.98;11.52;;;;;;;;;;5044971;28;20427;-85
2022/10/19 01:05:28;;;;;;;17.25;11.23;;;;;;;;;;5044971;28;20041;-86
2022/10/19 01:07:56;;;;;;;12.82;10.68;;;;;;;;;;5030850;28;20132;-84
2022/10/19 01:10:29;;;;;;;14.93;11.10;;;;;;;;;;5046162;28;20037;-84
2022/10/19 01:12:59;;;;;;;13.23;10.75;;;;;;;;;;5048963;28;20077;-84
2022/10/19 01:15:50;;;;;;;16.88;11.27;;;;;;;;;;5046678;28;20075;-87
2022/10/19 01:18:33;;;;;;;16.83;10.50;;;;;;;;;;5045746;28;20056;-84
2022/10/19 01:21:17;;;;;;;17.65;11.13;;;;;;;;;;5051016;28;20048;-84
2022/10/19 01:23:50;;;;;;;13.13;10.73;;;;;;;;;;5041389;28;20376;-86
2022/10/19 01:26:29;;;;;;;15.75;10.75;;;;;;;;;;5045255;28;20189;-84
2022/10/19 01:29:09;;;;;;;14.77;10.98;;;;;;;;;;5043775;28;20046;-84
2022/10/19 01:31:45;;;;;;;18.58;11.02;;;;;;;;;;5046016;28;20037;-84
2022/10/19 01:34:22;;;;;;;16.38;11.93;;;;;;;;;;5047378;28;20057;-85
2022/10/19 01:36:49;;;;;;;14.23;10.35;;;;;;;;;;5046518;28;20418;-84
2022/10/19 01:39:16;;;;;;;15.05;10.85;;;;;;;;;;5048518;28;20555;-85
2022/10/19 01:41:57;;;;;;;14.57;10.48;;;;;;;;;;5046838;28;20049;-85
2022/10/19 01:44:35;;;;;;;15.40;10.75;;;;;;;;;;5045603;28;20046;-84
2022/10/19 01:47:08;;;;;;;18.02;11.40;;;;;;;;;;5049209;28;20170;-85
2022/10/19 01:49:49;;;;;;;15.57;11.07;;;;;;;;;;5048429;28;20403;-85
2022/10/19 01:52:18;;;;;;;15.68;11.57;;;;;;;;;;5049179;28;20237;-85
2022/10/19 01:54:48;;;;;;;15.38;11.48;;;;;;;;;;5044365;28;21394;-84
2022/10/19 01:57:19;;;;;;;16.63;11.60;;;;;;;;;;5052933;28;20044;-84
2022/10/19 01:59:47;;;;;;;19.63;12.10;;;;;;;;;;5051289;28;20037;-84
2022/10/19 02:02:15;;;;;;;22.83;13.10;;;;;;;;;;5051898;28;20480;-84
2022/10/19 02:04:43;;;;;;;23.95;14.45;;;;;;;;;;5051164;28;20048;-84
2022/10/19 02:07:10;;;;;;;27.50;14.52;;;;;;;;;;5053811;28;20511;-84
2022/10/19 02:09:37;;;;;;;25.42;14.35;;;;;;;;;;5051319;28;20112;-85
2022/10/19 02:12:08;;;;;;;23.75;15.00;;;;;;;;;;5053503;28;20041;-84
2022/10/19 02:14:56;;;;;;;25.08;15.27;;;;;;;;;;5060038;28;20059;-85
2022/10/19 02:17:28;;;;;;;24.90;14.85;;;;;;;;;;5058218;28;20041;-86
2022/10/19 02:19:56;;;;;;;24.92;16.00;;;;;;;;;;5067976;28;20041;-85
2022/10/19 02:22:24;;;;;;;26.25;15.15;;;;;;;;;;5066953;28;20073;-85
2022/10/19 02:24:51;;;;;;;28.30;14.80;;;;;;;;;;5057110;28;20512;-86
2022/10/19 02:27:18;;;;;;;26.95;14.60;;;;;;;;;;5055740;28;20045;-85
2022/10/19 02:29:46;;;;;;;24.30;13.48;;;;;;;;;;5053275;28;20038;-84
2022/10/19 02:32:13;;;;;;;21.63;13.35;;;;;;;;;;5054942;28;20072;-85
2022/10/19 02:34:40;;;;;;;24.33;13.27;;;;;;;;;;5050986;28;20419;-85
2022/10/19 02:37:08;;;;;;;22.25;13.23;;;;;;;;;;5056751;28;20135;-85
2022/10/19 02:39:35;;;;;;;34.17;14.20;;;;;;;;;;5054517;28;20048;-85
2022/10/19 02:42:10;;;;;;;30.33;14.40;;;;;;;;;;5048132;28;20091;-85
2022/10/19 02:44:38;;;;;;;36.17;15.25;;;;;;;;;;5046179;28;20059;-86
2022/10/19 02:47:13;;;;;;;31.33;15.50;;;;;;;;;;5048691;28;20033;-85
2022/10/19 02:49:41;;;;;;;35.50;17.90;;;;;;;;;;5046348;28;20049;-85
2022/10/19 02:52:09;;;;;;;38.25;16.98;;;;;;;;;;5047928;28;20047;-85
2022/10/19 02:54:37;;;;;;;34.65;16.95;;;;;;;;;;5048056;28;20419;-85
2022/10/19 02:57:09;;;;;;;42.53;18.38;;;;;;;;;;5047460;28;20123;-86
2022/10/19 02:59:36;;;;;;;48.92;17.52;;;;;;;;;;5047307;28;20545;-85
2022/10/19 03:02:03;;;;;;;61.90;18.00;;;;;;;;;;5048958;28;20513;-85
2022/10/19 03:04:31;;;;;;;47.60;17.85;;;;;;;;;;5048318;28;20041;-85
2022/10/19 03:06:58;;;;;;;45.30;17.88;;;;;;;;;;5046019;28;20033;-85
2022/10/19 03:09:25;;;;;;;43.70;18.35;;;;;;;;;;5041734;28;20393;-85
2022/10/19 03:11:54;;;;;;;41.42;17.35;;;;;;;;;;5046627;28;20048;-85
2022/10/19 03:14:21;;;;;;;34.75;17.90;;;;;;;;;;5031187;28;20649;-85
2022/10/19 03:16:49;;;;;;;31.45;18.42;;;;;;;;;;5047708;28;20148;-85
2022/10/19 03:19:16;;;;;;;24.25;17.20;;;;;;;;;;5047568;28;20056;-85
2022/10/19 03:21:43;;;;;;;23.08;15.70;;;;;;;;;;5047404;28;20554;-85
2022/10/19 03:24:11;;;;;;;22.52;16.95;;;;;;;;;;5047356;28;20044;-86
2022/10/19 03:26:39;;;;;;;23.58;16.20;;;;;;;;;;5045179;28;20037;-86
2022/10/19 03:29:06;;;;;;;23.08;16.20;;;;;;;;;;5045359;28;20119;-86
2022/10/19 03:31:33;;;;;;;28.73;16.25;;;;;;;;;;5044079;28;20124;-85
2022/10/19 03:34:01;;;;;;;19.35;14.70;;;;;;;;;;5062286;28;20666;-85
2022/10/19 03:36:29;;;;;;;19.13;15.00;;;;;;;;;;5032150;28;20497;-85
2022/10/19 03:38:58;;;;;;;15.50;13.20;;;;;;;;;;5048177;28;20124;-85
2022/10/19 03:41:26;;;;;;;19.42;14.73;;;;;;;;;;5042761;23;20058;-76
2022/10/19 03:43:54;;;;;;;19.63;13.30;;;;;;;;;;4990652;28;20096;-75
2022/10/19 03:46:21;;;;;;;18.02;13.90;;;;;;;;;;4986560;28;20517;-75
2022/10/19 03:48:48;;;;;;;16.20;13.77;;;;;;;;;;4983263;28;20148;-75
2022/10/19 03:51:17;;;;;;;17.13;13.85;;;;;;;;;;4983665;28;20084;-74
2022/10/19 03:53:45;;;;;;;17.40;13.80;;;;;;;;;;4985023;28;20125;-75
2022/10/19 03:56:14;;;;;;;18.98;14.63;;;;;;;;;;4997937;28;20056;-75
2022/10/19 03:58:42;;;;;;;20.33;14.80;;;;;;;;;;4983621;28;20141;-75
2022/10/19 04:01:14;;;;;;;19.35;14.60;;;;;;;;;;4967260;28;20144;-75
2022/10/19 04:03:41;;;;;;;21.35;14.98;;;;;;;;;;4988239;28;20623;-77
2022/10/19 04:06:13;;;;;;;19.75;15.10;;;;;;;;;;4987139;28;20038;-75
2022/10/19 04:08:47;;;;;;;18.75;14.85;;;;;;;;;;4979861;28;20125;-75
2022/10/19 04:11:16;;;;;;;20.15;14.70;;;;;;;;;;4983330;28;20042;-75
2022/10/19 04:13:43;;;;;;;17.42;13.55;;;;;;;;;;4981898;28;20046;-75
2022/10/19 04:16:12;;;;;;;16.90;13.93;;;;;;;;;;4981485;28;20046;-78
2022/10/19 04:18:40;;;;;;;13.90;12.35;;;;;;;;;;4985693;28;20050;-76
2022/10/19 04:21:07;;;;;;;18.85;14.73;;;;;;;;;;4986274;28;20042;-76
2022/10/19 04:23:35;;;;;;;21.73;15.48;;;;;;;;;;4964156;28;20492;-79
2022/10/19 04:26:03;;;;;;;17.38;14.60;;;;;;;;;;5002958;28;20740;-75
2022/10/19 04:28:31;;;;;;;16.45;13.93;;;;;;;;;;4981878;28;20046;-75
2022/10/19 04:31:01;;;;;;;18.33;13.80;;;;;;;;;;4983407;28;20123;-75
2022/10/19 04:33:28;;;;;;;17.60;14.25;;;;;;;;;;4984175;28;20050;-77
2022/10/19 04:36:03;;;;;;;21.15;13.75;;;;;;;;;;4985852;28;20074;-73
2022/10/19 04:38:30;;;;;;;15.10;13.10;;;;;;;;;;4985918;28;20042;-75
2022/10/19 04:41:02;;;;;;;20.67;14.70;;;;;;;;;;4984287;28;20236;-75
2022/10/19 04:43:29;;;;;;;16.35;14.07;;;;;;;;;;4983481;28;20070;-76
2022/10/19 04:45:56;;;;;;;14.98;13.38;;;;;;;;;;4977783;28;20042;-75
2022/10/19 04:48:24;;;;;;;19.13;14.52;;;;;;;;;;4985043;28;20596;-75
2022/10/19 04:50:54;;;;;;;19.00;14.13;;;;;;;;;;4983922;28;20035;-76
2022/10/19 04:53:22;;;;;;;16.23;14.50;;;;;;;;;;4987266;28;20466;-76
2022/10/19 04:55:50;;;;;;;15.70;13.95;;;;;;;;;;4981961;28;20053;-76
2022/10/19 04:58:18;;;;;;;14.20;12.57;;;;;;;;;;4990026;28;20042;-76
2022/10/19 05:00:45;;;;;;;17.50;14.52;;;;;;;;;;4982076;28;20068;-75
2022/10/19 05:03:13;;;;;;;16.27;13.70;;;;;;;;;;4981852;28;21060;-74
2022/10/19 05:05:40;;;;;;;15.40;13.80;;;;;;;;;;4981473;28;20485;-75
2022/10/19 05:08:08;;;;;;;15.15;13.35;;;;;;;;;;4987486;28;20042;-76
2022/10/19 05:10:36;;;;;;;14.75;13.25;;;;;;;;;;4983286;28;20056;-76
2022/10/19 05:13:03;;;;;;;17.17;13.57;;;;;;;;;;4985433;28;20039;-76
2022/10/19 05:15:30;;;;;;;17.67;15.15;;;;;;;;;;4961828;28;20065;-75
2022/10/19 05:17:58;;;;;;;15.52;13.80;;;;;;;;;;4983093;28;20480;-75
2022/10/19 05:20:26;;;;;;;14.93;12.55;;;;;;;;;;4981658;28;20145;-76
2022/10/19 05:22:53;;;;;;;17.00;14.90;;;;;;;;;;4983161;28;20073;-76
2022/10/19 05:25:20;;;;;;;15.45;13.75;;;;;;;;;;4983383;28;20046;-76
2022/10/19 05:27:51;;;;;;;16.98;15.20;;;;;;;;;;4984677;28;20038;-79
2022/10/19 05:30:20;;;;;;;17.47;15.53;;;;;;;;;;4981944;28;20043;-76
2022/10/19 05:32:48;;;;;;;16.55;14.90;;;;;;;;;;4970309;28;20054;-75
2022/10/19 05:35:15;;;;;;;15.43;13.40;;;;;;;;;;4980243;28;20038;-75
2022/10/19 05:37:47;;;;;;;15.95;13.80;;;;;;;;;;4990614;28;20042;-76
2022/10/19 05:40:16;;;;;;;16.00;14.38;;;;;;;;;;4987720;28;20202;-76
2022/10/19 05:42:44;;;;;;;15.05;12.68;;;;;;;;;;4970215;28;20061;-75
2022/10/19 05:45:11;;;;;;;15.98;14.27;;;;;;;;;;4988876;28;20077;-75
2022/10/19 05:47:38;;;;;;;15.27;13.70;;;;;;;;;;4984298;28;20039;-74
2022/10/19 05:50:06;;;;;;;16.88;13.77;;;;;;;;;;4983513;28;20236;-75
2022/10/19 05:52:33;;;;;;;14.40;12.93;;;;;;;;;;4988552;28;20122;-76
2022/10/19 05:55:00;;;;;;;17.13;13.25;;;;;;;;;;4980591;28;20051;-77
2022/10/19 05:57:28;;;;;;;14.07;12.57;;;;;;;;;;4980396;28;20050;-78
2022/10/19 05:59:57;;;;;;;14.93;13.27;;;;;;;;;;4981847;28;20054;-78
2022/10/19 06:02:24;;;;;;;17.60;13.98;;;;;;;;;;4965857;28;20145;-76
2022/10/19 06:04:51;;;;;;;14.00;11.65;;;;;;;;;;4963389;28;20658;-75
2022/10/19 06:07:19;;;;;;;17.33;14.77;;;;;;;;;;4982260;28;20146;-77
2022/10/19 06:09:46;;;;;;;16.58;13.43;;;;;;;;;;4984200;28;20031;-77
2022/10/19 06:12:14;;;;;;;17.05;13.57;;;;;;;;;;4981936;28;20062;-75
2022/10/19 06:14:42;;;;;;;15.70;13.25;;;;;;;;;;4983526;28;20104;-76
2022/10/19 06:17:10;;;;;;;15.80;13.40;;;;;;;;;;4986310;28;20042;-77
2022/10/19 06:19:37;;;;;;;16.25;13.35;;;;;;;;;;4985416;28;20133;-75
2022/10/19 06:22:04;;;;;;;19.05;13.93;;;;;;;;;;4988604;28;20038;-75
2022/10/19 06:24:32;;;;;;;15.05;13.10;;;;;;;;;;4984007;28;20445;-76
2022/10/19 06:26:59;;;;;;;21.42;16.23;;;;;;;;;;4990492;28;20037;-77
2022/10/19 06:29:26;;;;;;;18.73;13.95;;;;;;;;;;4992341;28;20042;-75
2022/10/19 06:31:54;;;;;;;17.30;13.68;;;;;;;;;;4972859;28;20102;-78
2022/10/19 06:34:22;;;;;;;17.25;13.73;;;;;;;;;;4986864;28;20047;-75
2022/10/19 06:36:49;;;;;;;21.45;15.38;;;;;;;;;;4981665;28;20046;-76
2022/10/19 06:39:16;;;;;;;15.57;13.57;;;;;;;;;;4986736;28;20042;-75
2022/10/19 06:41:44;;;;;;;17.80;14.90;;;;;;;;;;4991313;28;20699;-77
2022/10/19 06:44:18;;;;;;;18.35;14.75;;;;;;;;;;4983508;28;20382;-76
2022/10/19 06:46:45;;;;;;;17.60;13.48;;;;;;;;;;4985454;28;20081;-76
2022/10/19 06:49:13;;;;;;;14.85;13.20;;;;;;;;;;4978704;28;20101;-78
2022/10/19 06:51:40;;;;;;;17.73;13.80;;;;;;;;;;4990168;28;20042;-78
2022/10/19 06:54:08;;;;;;;16.55;13.68;;;;;;;;;;4986862;28;20571;-75
2022/10/19 06:56:35;;;;;;;15.75;12.88;;;;;;;;;;4972364;28;20054;-75
2022/10/19 06:59:03;;;;;;;18.88;13.55;;;;;;;;;;4989152;28;20046;-76
2022/10/19 07:01:31;;;;;;;14.25;12.45;;;;;;;;;;4985416;28;20087;-75
2022/10/19 07:03:58;;;;;;;19.10;13.23;;;;;;;;;;4970558;28;21287;-76
2022/10/19 07:06:27;;;;;;;17.25;14.18;;;;;;;;;;4970415;28;20069;-77
2022/10/19 07:08:54;;;;;;;16.63;14.32;;;;;;;;;;4986764;28;20038;-76
2022/10/19 07:11:21;;;;;;;17.75;13.52;;;;;;;;;;4987541;28;20046;-76
2022/10/19 07:13:49;;;;;;;16.08;13.20;;;;;;;;;;4989372;28;20053;-76
2022/10/19 07:16:17;;;;;;;16.30;12.85;;;;;;;;;;4971588;28;20773;-76
2022/10/19 07:18:48;;;;;;;13.85;12.32;;;;;;;;;;4990126;28;20042;-76
2022/10/19 07:21:15;;;;;;;13.75;12.32;;;;;;;;;;4988271;28;20141;-76
2022/10/19 07:23:43;;;;;;;14.05;12.30;;;;;;;;;;4997436;28;20092;-76
2022/10/19 07:26:12;;;;;;;12.75;11.30;;;;;;;;;;4985746;28;20050;-76
2022/10/19 07:28:40;;;;;;;15.38;12.25;;;;;;;;;;4984888;28;20058;-76
2022/10/19 07:31:12;;;;;;;13.50;12.10;;;;;;;;;;4989059;28;20451;-76
2022/10/19 07:33:39;;;;;;;14.55;12.10;;;;;;;;;;4989761;28;20174;-76
2022/10/19 07:36:08;;;;;;;16.23;11.82;;;;;;;;;;4989986;28;20125;-76
2022/10/19 07:38:36;;;;;;;16.05;13.40;;;;;;;;;;4997692;28;20092;-76
2022/10/19 07:41:12;;;;;;;14.30;12.07;;;;;;;;;;4990282;28;20050;-76
2022/10/19 07:43:39;;;;;;;14.55;12.98;;;;;;;;;;4991490;28;20477;-76
2022/10/19 07:46:08;;;;;;;14.60;12.18;;;;;;;;;;4984994;28;20038;-75
2022/10/19 07:48:35;;;;;;;12.45;11.15;;;;;;;;;;5036715;23;20137;-79
2022/10/19 07:51:05;;;;;;;15.32;10.50;;;;;;;;;;5015309;28;20136;-80
2022/10/19 07:53:35;;;;;;;13.48;11.55;;;;;;;;;;5000918;28;20048;-80
2022/10/19 07:56:07;;;;;;;16.77;11.88;;;;;;;;;;5001450;28;20145;-80
2022/10/19 07:58:35;;;;;;;14.27;11.20;;;;;;;;;;5008586;28;20038;-79
2022/10/19 08:01:04;;;;;;;14.43;11.90;;;;;;;;;;5008045;28;20042;-80
2022/10/19 08:03:31;;;;;;;13.98;11.70;;;;;;;;;;4991888;28;20073;-79
2022/10/19 08:06:19;;;;;;;13.57;11.82;;;;;;;;;;4979035;28;20042;-80
2022/10/19 08:08:47;;;;;;;14.98;11.68;;;;;;;;;;5010388;28;20042;-80
2022/10/19 08:11:17;;;;;;;19.58;11.32;;;;;;;;;;5010244;28;20494;-80
2022/10/19 08:13:44;;;;;;;14.55;12.80;;;;;;;;;;5010091;28;20517;-80
2022/10/19 08:16:23;;;;;;;13.55;11.52;;;;;;;;;;5008425;28;20133;-80
2022/10/19 08:18:52;;;;;;;13.80;11.50;;;;;;;;;;4992742;28;20073;-83
2022/10/19 08:21:19;;;;;;;12.43;10.90;;;;;;;;;;5008597;28;20085;-80
2022/10/19 08:23:47;;;;;;;13.07;11.35;;;;;;;;;;5008659;28;20095;-79
2022/10/19 08:26:14;;;;;;;12.38;11.10;;;;;;;;;;5009316;28;20100;-80
2022/10/19 08:28:42;;;;;;;12.13;10.93;;;;;;;;;;5009015;28;20082;-80
2022/10/19 08:31:12;;;;;;;11.82;10.63;;;;;;;;;;5008652;28;20053;-80
2022/10/19 08:33:40;;;;;;;13.55;10.25;;;;;;;;;;5008880;28;20045;-81
2022/10/19 08:36:08;;;;;;;11.77;10.57;;;;;;;;;;5009870;28;20038;-80
2022/10/19 08:38:36;;;;;;;11.23;10.13;;;;;;;;;;4991989;28;20048;-80
2022/10/19 08:41:25;;;;;;;12.57;9.82;;;;;;;;;;5009590;28;20509;-80
2022/10/19 08:43:56;;;;;;;10.88;9.77;;;;;;;;;;5001260;28;20069;-81
2022/10/19 08:46:34;;;;;;;10.77;9.68;;;;;;;;;;5008527;28;20050;-80
2022/10/19 08:49:02;;;;;;;11.07;9.98;;;;;;;;;;5009679;28;20500;-79
2022/10/19 08:51:35;;;;;;;10.80;9.63;;;;;;;;;;5007998;28;20426;-80
2022/10/19 08:54:10;;;;;;;10.32;9.32;;;;;;;;;;5009776;28;20450;-80
2022/10/19 08:57:01;;;;;;;11.15;9.57;;;;;;;;;;5009145;28;20503;-80
2022/10/19 08:59:31;;;;;;;11.75;9.43;;;;;;;;;;5007696;28;20133;-80
2022/10/19 09:02:02;;;;;;;12.60;9.35;;;;;;;;;;4991448;28;20587;-80
2022/10/19 09:04:36;;;;;;;10.10;9.20;;;;;;;;;;5009452;28;20362;-79
2022/10/19 09:07:20;;;;;;;10.45;9.35;;;;;;;;;;4991722;28;20054;-80
2022/10/19 09:10:06;;;;;;;10.10;8.45;;;;;;;;;;5008151;28;20577;-80
2022/10/19 09:12:40;;;;;;;9.50;8.60;;;;;;;;;;5007786;28;20041;-80
2022/10/19 09:15:11;;;;;;;10.00;8.13;;;;;;;;;;5007721;28;20100;-80
2022/10/19 09:17:38;;;;;;;10.95;7.80;;;;;;;;;;5008839;28;20133;-80
2022/10/19 09:20:14;;;;;;;8.13;7.43;;;;;;;;;;5007695;28;20046;-79
2022/10/19 09:22:42;;;;;;;8.60;7.90;;;;;;;;;;5008747;28;20044;-79
2022/10/19 09:25:13;;;;;;;8.88;7.97;;;;;;;;;;4991612;28;20054;-81
2022/10/19 09:27:43;;;;;;;8.30;7.50;;;;;;;;;;5009051;28;20176;-79
2022/10/19 09:30:21;;;;;;;7.70;7.00;;;;;;;;;;5007787;28;20057;-79
2022/10/19 09:32:51;;;;;;;7.95;7.15;;;;;;;;;;5007890;28;20494;-79
2022/10/19 09:35:18;;;;;;;8.55;7.68;;;;;;;;;;5008467;28;20070;-80
2022/10/19 09:37:47;;;;;;;11.98;7.75;;;;;;;;;;5007326;28;20050;-80
2022/10/19 09:40:19;;;;;;;7.40;6.75;;;;;;;;;;5007084;28;20044;-80
2022/10/19 09:42:55;;;;;;;6.97;6.47;;;;;;;;;;5008758;28;20396;-80
2022/10/19 09:45:41;;;;;;;6.47;5.97;;;;;;;;;;5007075;28;20057;-80
2022/10/19 09:48:27;;;;;;;6.88;6.28;;;;;;;;;;5007801;28;20046;-80
2022/10/19 09:50:59;;;;;;;7.22;6.53;;;;;;;;;;4991080;28;20398;-80
2022/10/19 09:53:27;;;;;;;6.53;6.03;;;;;;;;;;4991423;28;20053;-80
2022/10/19 09:55:57;;;;;;;8.63;6.75;;;;;;;;;;5011065;28;20069;-80
2022/10/19 09:58:26;;;;;;;6.80;6.30;;;;;;;;;;5011859;28;20042;-80
2022/10/19 10:00:59;;;;;;;7.05;5.72;;;;;;;;;;4996021;28;20038;-81
2022/10/19 10:03:27;;;;;;;6.53;6.03;;;;;;;;;;5011398;28;20073;-80
2022/10/19 10:06:05;;;;;;;9.25;6.28;;;;;;;;;;5011034;28;20482;-80
2022/10/19 10:08:34;;;;;;;6.28;5.78;;;;;;;;;;4995183;28;20441;-80
2022/10/19 10:11:12;;;;;;;8.20;6.15;;;;;;;;;;5010933;28;20052;-80
2022/10/19 10:13:47;;;;;;;7.43;5.40;;;;;;;;;;5011713;28;20046;-81
2022/10/19 10:16:16;;;;;;;7.25;6.13;;;;;;;;;;5010463;28;20568;-80
2022/10/19 10:18:55;;;;;;;6.40;5.90;;;;;;;;;;5012257;28;20051;-80
2022/10/19 10:21:24;;;;;;;6.10;5.70;;;;;;;;;;5010831;28;20065;-81
2022/10/19 10:24:04;;;;;;;7.32;5.68;;;;;;;;;;4994791;28;20046;-80
2022/10/19 10:26:37;;;;;;;7.65;5.43;;;;;;;;;;5009985;28;20490;-80
2022/10/19 10:29:15;;;;;;;6.03;5.55;;;;;;;;;;4993327;28;20895;-80
2022/10/19 10:31:43;;;;;;;7.25;5.43;;;;;;;;;;5004832;28;20152;-80
2022/10/19 10:34:16;;;;;;;6.28;5.78;;;;;;;;;;5020470;28;20041;-80
2022/10/19 10:37:05;;;;;;;5.60;5.20;;;;;;;;;;5017063;28;20041;-80
2022/10/19 10:39:39;;;;;;;6.25;5.75;;;;;;;;;;5008927;28;20066;-80
2022/10/19 10:42:09;;;;;;;6.35;5.80;;;;;;;;;;5004909;28;20121;-81
2022/10/19 10:44:38;;;;;;;5.93;5.32;;;;;;;;;;5007246;28;20081;-80
2022/10/19 10:47:12;;;;;;;6.60;6.10;;;;;;;;;;4974728;28;20050;-81
2022/10/19 10:49:43;;;;;;;10.23;6.10;;;;;;;;;;4999734;28;20050;-79
2022/10/19 10:52:14;;;;;;;6.00;5.47;;;;;;;;;;5005755;28;20092;-81
2022/10/19 10:54:57;;;;;;;6.32;5.82;;;;;;;;;;5005312;28;20052;-79
2022/10/19 10:57:25;;;;;;;5.30;4.90;;;;;;;;;;5006900;28;20109;-79
2022/10/19 10:59:52;;;;;;;7.75;5.38;;;;;;;;;;5005772;28;20042;-79
2022/10/19 11:02:30;;;;;;;5.93;4.75;;;;;;;;;;5005256;28;20049;-80
2022/10/19 11:05:17;;;;;;;5.88;5.07;;;;;;;;;;4988191;28;20132;-83
2022/10/19 11:12:46;;;;;;;6.90;5.10;;;;;;;;;;4995649;28;20054;-84
2022/10/19 11:15:59;;;;;;;4.93;4.53;;;;;;;;;;5003131;28;20053;-83
2022/10/19 11:18:37;;;;;;;4.38;4.07;;;;;;;;;;4944489;28;20053;-82
2022/10/19 11:21:31;;;;;;;5.38;4.95;;;;;;;;;;5003631;28;20056;-83
2022/10/19 11:24:09;;;;;;;3.92;3.63;;;;;;;;;;4984527;28;20069;-79
2022/10/19 11:26:44;;;;;;;3.55;3.35;;;;;;;;;;5008199;28;20144;-80
2022/10/19 11:29:27;;;;;;;5.57;5.07;;;;;;;;;;5002319;28;20045;-80
2022/10/19 11:31:56;;;;;;;6.05;3.80;;;;;;;;;;5003332;28;20099;-82
2022/10/19 11:34:23;;;;;;;3.78;3.47;;;;;;;;;;5008512;28;20108;-81
2022/10/19 11:36:54;;;;;;;4.95;4.00;;;;;;;;;;5007969;28;20042;-80
2022/10/19 11:39:22;;;;;;;4.63;4.15;;;;;;;;;;5008179;28;20044;-81
2022/10/19 11:42:07;;;;;;;3.83;3.42;;;;;;;;;;4990769;28;20052;-80
2022/10/19 11:44:35;;;;;;;5.20;3.70;;;;;;;;;;5007141;28;20046;-81
2022/10/19 11:47:21;;;;;;;4.03;3.70;;;;;;;;;;5004797;28;20046;-81
2022/10/19 11:50:12;;;;;;;5.75;3.78;;;;;;;;;;5001342;28;20046;-80
2022/10/19 11:52:48;;;;;;;3.20;2.97;;;;;;;;;;5004231;28;20041;-80
2022/10/19 11:55:34;;;;;;;3.33;3.13;;;;;;;;;;5006281;28;20499;-82
2022/10/19 11:58:01;;;;;;;7.40;3.58;;;;;;;;;;5004850;28;20048;-81
2022/10/19 12:00:30;;;;;;;2.85;2.75;;;;;;;;;;5001191;23;20046;-77
2022/10/19 12:03:25;;;;;;;4.38;2.70;;;;;;;;;;5027458;28;20046;-82
2022/10/19 12:06:11;;;;;;;3.10;2.90;;;;;;;;;;5010262;28;20053;-78
2022/10/19 12:08:47;;;;;;;2.42;2.33;;;;;;;;;;5005561;28;20046;-75
2022/10/19 12:11:40;;;;;;;2.78;2.58;;;;;;;;;;5007730;28;20512;-76
2022/10/19 12:14:10;;;;;;;3.05;2.80;;;;;;;;;;5020367;28;20463;-75
2022/10/19 12:16:49;;;;;;;3.25;2.97;;;;;;;;;;4997994;28;20762;-75
2022/10/19 12:19:22;;;;;;;2.90;2.70;;;;;;;;;;5001357;28;20508;-75
2022/10/19 12:21:50;;;;;;;2.47;2.33;;;;;;;;;;5002892;28;20046;-77
2022/10/19 12:24:19;;;;;;;2.88;2.67;;;;;;;;;;5001868;28;20091;-77
2022/10/19 12:26:47;;;;;;;2.92;2.58;;;;;;;;;;4999309;28;20034;-77
2022/10/19 12:29:23;;;;;;;4.13;2.80;;;;;;;;;;4999666;28;20483;-77
2022/10/19 12:31:51;;;;;;;2.15;2.05;;;;;;;;;;4995159;28;20043;-77
2022/10/19 12:34:21;;;;;;;1.73;1.63;;;;;;;;;;4998748;28;20069;-77
2022/10/19 12:37:08;;;;;;;2.30;2.10;;;;;;;;;;4997723;28;20126;-77
2022/10/19 12:39:55;;;;;;;1.77;1.67;;;;;;;;;;5004456;28;20140;-76
2022/10/19 12:42:27;;;;;;;1.98;1.88;;;;;;;;;;5003055;28;20694;-76
2022/10/19 12:45:00;;;;;;;4.05;2.60;;;;;;;;;;5000707;28;20497;-78
2022/10/19 12:47:28;;;;;;;1.63;1.60;;;;;;;;;;5002445;28;20046;-78
2022/10/19 12:49:58;;;;;;;2.15;2.05;;;;;;;;;;4989088;28;20034;-76
2022/10/19 12:52:47;;;;;;;2.30;2.03;;;;;;;;;;5001254;28;20074;-77
2022/10/19 12:55:14;;;;;;;2.65;2.45;;;;;;;;;;4999546;28;20041;-76
2022/10/19 12:58:02;;;;;;;1.85;1.35;;;;;;;;;;4997808;28;20391;-76
2022/10/19 13:00:35;;;;;;;1.70;1.60;;;;;;;;;;4992846;28;20046;-77
2022/10/19 13:03:17;;;;;;;2.40;2.20;;;;;;;;;;4987402;28;20431;-77
2022/10/19 13:05:54;;;;;;;2.35;2.20;;;;;;;;;;5001926;28;20484;-75
2022/10/19 13:08:26;;;;;;;4.00;2.10;;;;;;;;;;4999737;28;20444;-76
2022/10/19 13:11:13;;;;;;;1.98;1.88;;;;;;;;;;5004558;28;20052;-78
2022/10/19 13:13:50;;;;;;;2.30;2.10;;;;;;;;;;5000934;28;20045;-77
2022/10/19 13:16:30;;;;;;;6.72;2.22;;;;;;;;;;5000482;28;20125;-77
2022/10/19 13:19:16;;;;;;;1.90;1.80;;;;;;;;;;5017977;28;20046;-77
2022/10/19 13:21:47;;;;;;;4.30;2.08;;;;;;;;;;4993078;28;20045;-76
2022/10/19 13:24:35;;;;;;;2.20;2.10;;;;;;;;;;4999533;28;20050;-76
2022/10/19 13:27:02;;;;;;;4.57;2.50;;;;;;;;;;4997943;28;20100;-76
2022/10/19 13:29:37;;;;;;;3.03;2.60;;;;;;;;;;4995051;28;20844;-77
2022/10/19 13:32:23;;;;;;;2.63;2.53;;;;;;;;;;5009698;28;20390;-76
2022/10/19 13:34:50;;;;;;;2.22;2.13;;;;;;;;;;5008756;28;20073;-76
2022/10/19 13:37:18;;;;;;;2.45;2.25;;;;;;;;;;5007480;28;20133;-76
2022/10/19 13:39:46;;;;;;;3.90;2.53;;;;;;;;;;5010370;28;20572;-77
2022/10/19 13:42:23;;;;;;;2.50;2.30;;;;;;;;;;5001871;28;20472;-76
2022/10/19 13:44:51;;;;;;;2.75;2.55;;;;;;;;;;5016007;28;20077;-76
2022/10/19 13:47:28;;;;;;;4.00;2.50;;;;;;;;;;5004013;28;20057;-76
2022/10/19 13:49:55;;;;;;;3.85;2.28;;;;;;;;;;5005491;28;20050;-77
2022/10/19 13:52:29;;;;;;;2.65;2.50;;;;;;;;;;5026499;28;20046;-77
2022/10/19 13:55:15;;;;;;;2.30;2.20;;;;;;;;;;5010683;28;20156;-76
2022/10/19 13:57:45;;;;;;;2.42;2.22;;;;;;;;;;5002669;28;20045;-77
2022/10/19 14:00:18;;;;;;;2.40;2.20;;;;;;;;;;5011785;28;20049;-77
2022/10/19 14:03:10;;;;;;;2.65;2.45;;;;;;;;;;4989654;28;20560;-77
2022/10/19 14:06:07;;;;;;;3.80;3.40;;;;;;;;;;5007979;28;20137;-78
2022/10/19 14:08:53;;;;;;;2.55;2.45;;;;;;;;;;4992746;28;20111;-76
2022/10/19 14:11:25;;;;;;;3.10;2.47;;;;;;;;;;5017561;28;20096;-79
2022/10/19 14:14:12;;;;;;;2.80;2.30;;;;;;;;;;5009767;28;20037;-77
2022/10/19 14:16:48;;;;;;;2.75;2.30;;;;;;;;;;4995775;28;20038;-77
2022/10/19 14:19:39;;;;;;;2.60;2.40;;;;;;;;;;5008660;28;20065;-76
2022/10/19 14:22:20;;;;;;;2.97;2.75;;;;;;;;;;4996370;28;20193;-76
2022/10/19 14:24:47;;;;;;;2.75;2.30;;;;;;;;;;5008509;28;20048;-77
2022/10/19 14:27:17;;;;;;;3.85;3.55;;;;;;;;;;5016184;28;20049;-77
2022/10/19 14:29:46;;;;;;;3.30;2.08;;;;;;;;;;4979542;28;20081;-77
2022/10/19 14:32:14;;;;;;;2.35;2.25;;;;;;;;;;4995156;28;20140;-77
2022/10/19 14:34:42;;;;;;;3.65;3.45;;;;;;;;;;5010612;28;20042;-84
2022/10/19 14:37:14;;;;;;;6.75;5.03;;;;;;;;;;5019113;28;20045;-77
2022/10/19 14:39:41;;;;;;;5.07;4.60;;;;;;;;;;5017187;28;20100;-77
2022/10/19 14:42:10;;;;;;;4.18;3.00;;;;;;;;;;5010968;28;20065;-84
2022/10/19 14:44:41;;;;;;;4.53;3.03;;;;;;;;;;5007920;28;20517;-78
2022/10/19 14:47:16;;;;;;;3.45;3.10;;;;;;;;;;5012731;28;20083;-76
2022/10/19 14:49:43;;;;;;;3.33;3.05;;;;;;;;;;5020641;28;20042;-77
2022/10/19 14:52:13;;;;;;;5.22;3.25;;;;;;;;;;5015139;28;20052;-78
2022/10/19 14:54:42;;;;;;;3.60;3.00;;;;;;;;;;5012843;28;20129;-77
2022/10/19 14:57:15;;;;;;;2.97;2.65;;;;;;;;;;5014538;28;20065;-77